createdAt,value
2022-11-29T00:01:39.433Z,55.97
2022-11-29T00:04:07.294Z,57.00
2022-11-29T00:06:35.613Z,55.83
2022-11-29T00:09:07.519Z,52.83
2022-11-29T00:11:56.099Z,51.17
2022-11-29T00:14:24.981Z,49.88
2022-11-29T00:16:55.301Z,53.83
2022-11-29T00:19:23.001Z,55.65
2022-11-29T00:21:50.578Z,55.88
2022-11-29T00:24:18.616Z,61.97
2022-11-29T00:26:46.592Z,53.17
2022-11-29T00:29:14.417Z,51.58
2022-11-29T00:31:42.433Z,55.20
2022-11-29T00:34:11.635Z,56.28
2022-11-29T00:36:39.257Z,53.40
2022-11-29T00:39:07.444Z,55.72
2022-11-29T00:41:35.389Z,55.15
2022-11-29T00:44:02.934Z,53.45
2022-11-29T00:46:30.402Z,53.83
2022-11-29T00:48:57.833Z,51.25
2022-11-29T00:51:25.389Z,53.85
2022-11-29T00:53:52.868Z,52.08
2022-11-29T00:56:20.358Z,49.85
2022-11-29T00:58:49.336Z,52.30
2022-11-29T01:01:17.134Z,50.95
2022-11-29T01:03:44.689Z,50.55
2022-11-29T01:06:14.336Z,56.63
2022-11-29T01:08:42.238Z,52.22
2022-11-29T01:11:18.783Z,53.97
2022-11-29T01:13:47.277Z,53.25
2022-11-29T01:16:15.954Z,50.75
2022-11-29T01:18:44.043Z,48.83
2022-11-29T01:21:14.874Z,50.95
2022-11-29T01:23:43.302Z,54.40
2022-11-29T01:26:14.198Z,53.92
2022-11-29T01:28:42.429Z,49.67
2022-11-29T01:31:16.045Z,52.50
2022-11-29T01:33:43.543Z,50.22
2022-11-29T01:36:13.342Z,51.08
2022-11-29T01:38:42.605Z,50.63
2022-11-29T01:41:19.216Z,54.45
2022-11-29T01:44:25.939Z,51.55
2022-11-29T01:46:54.589Z,57.42
2022-11-29T01:49:27.326Z,57.47
2022-11-29T01:52:14.784Z,57.65
2022-11-29T01:54:45.558Z,63.53
2022-11-29T01:57:13.640Z,60.97
2022-11-29T01:59:54.786Z,59.45
2022-11-29T02:02:32.732Z,56.72
2022-11-29T02:05:01.258Z,62.65
2022-11-29T02:07:29.041Z,62.08
2022-11-29T02:09:56.555Z,63.80
2022-11-29T02:13:11.728Z,65.65
2022-11-29T02:15:57.368Z,67.72
2022-11-29T02:18:50.157Z,68.22
2022-11-29T02:21:20.395Z,67.22
2022-11-29T02:24:15.428Z,67.32
2022-11-29T02:26:49.085Z,70.45
2022-11-29T02:29:46.034Z,70.85
2022-11-29T02:32:31.784Z,70.85
2022-11-29T02:35:17.818Z,69.57
2022-11-29T02:37:54.839Z,74.72
2022-11-29T02:41:01.183Z,72.45
2022-11-29T02:43:53.306Z,83.88
2022-11-29T02:46:26.518Z,76.00
2022-11-29T02:49:24.638Z,75.18
2022-11-29T02:52:39.618Z,77.32
2022-11-29T02:57:50.625Z,75.88
2022-11-29T03:00:23.211Z,74.38
2022-11-29T03:02:53.671Z,72.97
2022-11-29T03:05:30.314Z,69.53
2022-11-29T03:08:18.501Z,67.68
2022-11-29T03:10:58.246Z,74.10
2022-11-29T03:13:54.594Z,69.28
2022-11-29T03:16:43.568Z,68.72
2022-11-29T03:19:48.188Z,70.90
2022-11-29T03:23:07.877Z,70.30
2022-11-29T03:25:59.428Z,61.17
2022-11-29T03:28:38.258Z,62.10
2022-11-29T03:31:16.328Z,65.35
2022-11-29T03:34:20.724Z,63.78
2022-11-29T03:37:10.003Z,66.55
2022-11-29T03:39:41.894Z,59.40
2022-11-29T03:42:17.771Z,68.45
2022-11-29T03:45:08.721Z,62.55
2022-11-29T03:47:42.827Z,63.72
2022-11-29T03:50:20.526Z,61.83
2022-11-29T03:52:53.553Z,59.25
2022-11-29T03:55:47.158Z,61.58
2022-11-29T03:58:36.068Z,61.53
2022-11-29T04:01:30.880Z,59.72
2022-11-29T04:04:34.344Z,63.63
2022-11-29T04:07:42.979Z,58.90
2022-11-29T04:10:41.003Z,55.22
2022-11-29T04:13:42.657Z,55.35
2022-11-29T04:16:28.891Z,52.22
2022-11-29T04:18:56.317Z,54.60
2022-11-29T04:22:11.238Z,55.15
2022-11-29T04:27:27.044Z,53.00
2022-11-29T04:30:27.713Z,52.20
2022-11-29T04:33:37.447Z,54.35
2022-11-29T04:36:35.706Z,54.65
2022-11-29T04:39:24.333Z,53.28
2022-11-29T04:42:03.288Z,50.45
2022-11-29T04:44:49.504Z,51.25
2022-11-29T04:47:29.014Z,48.65
2022-11-29T04:50:13.036Z,50.22
2022-11-29T04:55:44.608Z,46.25
2022-11-29T04:58:36.004Z,41.60
2022-11-29T05:01:27.604Z,48.45
2022-11-29T05:11:44.786Z,44.17
2022-11-29T05:14:41.093Z,47.90
2022-11-29T05:17:30.722Z,50.53
2022-11-29T05:20:27.427Z,47.92
2022-11-29T05:23:24.182Z,50.58
2022-11-29T05:26:25.016Z,51.75
2022-11-29T05:29:03.216Z,47.72
2022-11-29T05:32:21.811Z,49.40
2022-11-29T05:34:52.103Z,50.10
2022-11-29T05:37:31.115Z,47.10
2022-11-29T05:40:13.456Z,52.10
2022-11-29T05:43:06.096Z,53.30
2022-11-29T05:46:08.433Z,55.42
2022-11-29T05:48:46.578Z,56.70
2022-11-29T05:51:53.034Z,59.35
2022-11-29T05:54:44.594Z,53.47
2022-11-29T05:57:57.204Z,56.40
2022-11-29T06:00:29.807Z,59.47
2022-11-29T06:03:06.527Z,58.05
2022-11-29T06:05:47.692Z,56.55
2022-11-29T06:08:33.686Z,56.90
2022-11-29T06:11:05.889Z,58.88
2022-11-29T06:13:55.500Z,58.22
2022-11-29T06:16:31.830Z,58.00
2022-11-29T06:19:19.358Z,51.53
2022-11-29T06:22:09.335Z,55.40
2022-11-29T06:25:05.077Z,54.70
2022-11-29T06:27:50.555Z,53.20
2022-11-29T06:30:26.757Z,59.35
2022-11-29T06:33:14.193Z,58.35
2022-11-29T06:35:52.226Z,55.45
2022-11-29T06:38:27.362Z,53.55
2022-11-29T06:41:01.555Z,56.40
2022-11-29T06:43:31.009Z,58.95
2022-11-29T06:46:14.896Z,57.05
2022-11-29T06:51:29.028Z,55.08
2022-11-29T06:54:06.216Z,55.83
2022-11-29T06:56:41.956Z,58.63
2022-11-29T06:59:21.587Z,53.08
2022-11-29T07:02:04.829Z,58.83
2022-11-29T07:04:55.436Z,58.90
2022-11-29T07:07:24.107Z,58.50
2022-11-29T07:09:57.082Z,58.92
2022-11-29T07:12:24.847Z,58.40
2022-11-29T07:14:52.686Z,57.65
2022-11-29T07:17:29.224Z,58.70
2022-11-29T07:20:02.835Z,55.78
2022-11-29T07:22:42.623Z,58.65
2022-11-29T07:25:24.742Z,54.80
2022-11-29T07:28:01.615Z,53.60
2022-11-29T07:30:53.632Z,54.13
2022-11-29T07:33:53.426Z,54.47
2022-11-29T07:36:38.483Z,48.55
2022-11-29T07:39:38.303Z,53.50
2022-11-29T07:42:41.528Z,46.42
2022-11-29T07:45:26.543Z,45.40
2022-11-29T07:47:54.515Z,48.58
2022-11-29T07:50:22.365Z,40.17
2022-11-29T07:52:50.184Z,44.88
2022-11-29T07:55:21.203Z,41.97
2022-11-29T07:57:49.733Z,40.70
2022-11-29T08:00:18.565Z,44.30
2022-11-29T08:02:47.492Z,43.60
2022-11-29T08:05:15.104Z,38.72
2022-11-29T08:07:43.082Z,40.85
2022-11-29T08:10:13.815Z,43.28
2022-11-29T08:12:47.459Z,39.90
2022-11-29T08:15:15.235Z,38.40
2022-11-29T08:17:42.985Z,44.47
2022-11-29T08:20:12.819Z,36.90
2022-11-29T08:22:40.448Z,36.65
2022-11-29T08:25:09.095Z,42.67
2022-11-29T08:27:37.673Z,42.28
2022-11-29T08:30:06.756Z,41.55
2022-11-29T08:32:34.878Z,39.75
2022-11-29T08:35:02.433Z,38.50
2022-11-29T08:37:30.172Z,39.00
2022-11-29T08:39:59.042Z,39.10
2022-11-29T08:42:26.539Z,36.40
2022-11-29T08:44:54.037Z,41.03
2022-11-29T08:47:36.499Z,34.88
2022-11-29T08:50:07.335Z,37.67
2022-11-29T08:52:56.046Z,33.72
2022-11-29T08:55:26.477Z,38.17
2022-11-29T08:58:00.118Z,36.33
2022-11-29T09:00:27.657Z,41.03
2022-11-29T09:02:55.123Z,35.15
2022-11-29T09:05:22.717Z,36.80
2022-11-29T09:07:50.250Z,35.80
2022-11-29T09:10:17.825Z,37.92
2022-11-29T09:12:45.813Z,35.25
2022-11-29T09:15:13.383Z,35.08
2022-11-29T09:17:40.896Z,35.95
2022-11-29T09:20:09.015Z,37.50
2022-11-29T09:22:36.510Z,35.08
2022-11-29T09:25:04.497Z,34.00
2022-11-29T09:27:32.107Z,33.83
2022-11-29T09:29:59.671Z,40.85
2022-11-29T09:32:27.181Z,33.08
2022-11-29T09:34:54.629Z,37.05
2022-11-29T09:37:22.127Z,33.85
2022-11-29T09:39:49.575Z,32.17
2022-11-29T09:42:35.618Z,34.50
2022-11-29T09:45:09.725Z,37.85
2022-11-29T09:47:52.199Z,39.45
2022-11-29T09:50:25.507Z,40.20
2022-11-29T09:53:04.911Z,38.97
2022-11-29T09:55:50.804Z,36.58
2022-11-29T09:58:21.762Z,41.25
2022-11-29T10:00:52.544Z,33.78
2022-11-29T10:03:29.545Z,32.50
2022-11-29T10:06:27.046Z,39.45
2022-11-29T10:09:04.528Z,35.67
2022-11-29T10:11:49.761Z,36.00
2022-11-29T10:14:22.924Z,40.03
2022-11-29T10:17:01.309Z,39.65
2022-11-29T10:19:36.945Z,41.42
2022-11-29T10:22:14.361Z,40.35
2022-11-29T10:24:47.112Z,34.03
2022-11-29T10:27:19.804Z,37.60
2022-11-29T10:29:50.587Z,37.53
2022-11-29T10:32:21.395Z,36.47
2022-11-29T10:34:49.937Z,40.38
2022-11-29T10:37:22.137Z,34.28
2022-11-29T10:40:13.236Z,39.20
2022-11-29T10:42:50.037Z,36.40
2022-11-29T10:45:20.598Z,37.60
2022-11-29T10:47:50.396Z,37.95
2022-11-29T10:50:22.153Z,36.80
2022-11-29T10:52:49.677Z,38.17
2022-11-29T10:55:18.427Z,38.22
2022-11-29T10:58:08.703Z,37.30
2022-11-29T11:01:07.078Z,36.38
2022-11-29T11:03:41.457Z,37.17
2022-11-29T11:06:18.917Z,35.83
2022-11-29T11:08:49.975Z,39.33
2022-11-29T11:11:38.911Z,34.20
2022-11-29T11:14:27.872Z,39.67
2022-11-29T11:16:55.888Z,36.20
2022-11-29T11:19:34.563Z,43.08
2022-11-29T11:22:03.436Z,34.67
2022-11-29T11:24:40.186Z,37.40
2022-11-29T11:27:08.147Z,37.38
2022-11-29T11:29:42.456Z,38.08
2022-11-29T11:32:20.326Z,38.00
2022-11-29T11:35:02.282Z,38.95
2022-11-29T11:37:33.796Z,37.90
2022-11-29T11:40:20.906Z,36.15
2022-11-29T11:42:48.567Z,37.80
2022-11-29T11:45:15.976Z,37.80
2022-11-29T11:47:53.074Z,38.33
2022-11-29T11:50:28.323Z,39.78
2022-11-29T11:53:05.106Z,34.95
2022-11-29T11:55:43.290Z,39.60
2022-11-29T11:58:13.787Z,37.55
2022-11-29T12:01:04.973Z,38.30
2022-11-29T12:03:58.418Z,33.75
2022-11-29T12:07:04.327Z,32.83
2022-11-29T12:09:43.707Z,34.45
2022-11-29T12:12:24.678Z,32.63
2022-11-29T12:14:56.890Z,30.70
2022-11-29T12:18:01.927Z,31.83
2022-11-29T12:20:45.435Z,33.50
2022-11-29T12:23:12.847Z,30.50
2022-11-29T12:26:05.836Z,30.58
2022-11-29T12:28:38.593Z,28.23
2022-11-29T12:31:18.085Z,29.20
2022-11-29T12:34:22.862Z,32.05
2022-11-29T12:37:24.426Z,36.30
2022-11-29T12:40:06.561Z,33.17
2022-11-29T12:42:45.274Z,31.00
2022-11-29T12:45:33.917Z,31.92
2022-11-29T12:48:29.067Z,35.88
2022-11-29T12:51:25.867Z,38.42
2022-11-29T12:54:24.843Z,36.60
2022-11-29T12:57:04.826Z,37.15
2022-11-29T12:59:42.186Z,39.03
2022-11-29T13:02:34.877Z,38.83
2022-11-29T13:05:14.724Z,49.97
2022-11-29T13:08:07.538Z,42.90
2022-11-29T13:11:04.400Z,40.80
2022-11-29T13:13:50.086Z,43.70
2022-11-29T13:16:31.403Z,41.42
2022-11-29T13:19:08.286Z,37.92
2022-11-29T13:22:02.127Z,42.67
2022-11-29T13:24:42.575Z,38.08
2022-11-29T13:27:18.870Z,41.35
2022-11-29T13:29:47.355Z,38.55
2022-11-29T13:32:28.582Z,40.10
2022-11-29T13:35:03.465Z,44.00
2022-11-29T13:37:42.959Z,42.00
2022-11-29T13:40:19.501Z,42.90
2022-11-29T13:42:56.880Z,38.80
2022-11-29T13:45:39.381Z,43.10
2022-11-29T13:48:37.216Z,38.38
2022-11-29T13:51:41.498Z,37.83
2022-11-29T13:54:31.101Z,38.80
2022-11-29T13:57:05.275Z,36.67
2022-11-29T13:59:36.339Z,37.83
2022-11-29T14:02:15.708Z,38.78
2022-11-29T14:04:46.405Z,39.28
2022-11-29T14:07:19.824Z,37.80
2022-11-29T14:10:05.806Z,39.10
2022-11-29T14:12:56.149Z,37.35
2022-11-29T14:15:28.484Z,39.05
2022-11-29T14:18:26.628Z,41.65
2022-11-29T14:20:55.769Z,43.47
2022-11-29T14:23:44.544Z,48.40
2022-11-29T14:26:28.290Z,46.13
2022-11-29T14:28:56.426Z,46.17
2022-11-29T14:31:48.710Z,44.03
2022-11-29T14:34:26.661Z,46.97
2022-11-29T14:37:02.693Z,48.15
2022-11-29T14:39:52.791Z,48.38
2022-11-29T14:42:23.683Z,53.78
2022-11-29T14:44:58.477Z,48.58
2022-11-29T14:47:33.079Z,53.92
2022-11-29T14:50:06.731Z,54.97
2022-11-29T14:52:39.621Z,51.83
2022-11-29T14:55:07.452Z,60.77
2022-11-29T14:57:54.610Z,63.97
2022-11-29T15:00:24.939Z,58.60
2022-11-29T15:03:01.508Z,57.70
2022-11-29T15:05:59.579Z,65.75
2022-11-29T15:08:27.047Z,65.35
2022-11-29T15:11:02.136Z,63.53
2022-11-29T15:13:33.055Z,73.57
2022-11-29T15:16:21.843Z,73.97
2022-11-29T15:19:16.729Z,73.32
2022-11-29T15:21:50.369Z,73.35
2022-11-29T15:27:03.580Z,71.35
2022-11-29T15:32:04.309Z,72.25
2022-11-29T15:34:38.234Z,76.53
2022-11-29T15:37:06.053Z,73.13
2022-11-29T15:39:37.601Z,72.25
2022-11-29T15:42:11.899Z,69.40
2022-11-29T15:44:49.253Z,72.20
2022-11-29T15:47:25.362Z,75.85
2022-11-29T15:49:54.157Z,83.57
2022-11-29T15:52:27.427Z,76.53
2022-11-29T15:55:01.334Z,82.97
2022-11-29T15:57:37.098Z,83.65
2022-11-29T16:00:15.927Z,75.32
2022-11-29T16:02:53.707Z,72.82
2022-11-29T16:05:37.040Z,77.10
2022-11-29T16:08:08.398Z,82.85
2022-11-29T16:10:43.682Z,75.68
2022-11-29T16:13:39.816Z,80.13
2022-11-29T16:16:19.576Z,88.45
2022-11-29T16:18:48.959Z,85.28
2022-11-29T16:21:24.664Z,83.78
2022-11-29T16:23:52.933Z,87.15
2022-11-29T16:26:24.727Z,76.63
2022-11-29T16:28:54.445Z,79.55
2022-11-29T16:31:30.538Z,80.13
2022-11-29T16:34:05.921Z,80.22
2022-11-29T16:36:33.523Z,73.03
2022-11-29T16:39:07.080Z,79.70
2022-11-29T16:41:38.963Z,75.45
2022-11-29T16:44:36.165Z,72.00
2022-11-29T16:47:25.620Z,76.03
2022-11-29T16:50:02.096Z,78.75
2022-11-29T16:52:32.327Z,81.68
2022-11-29T16:55:00.662Z,74.40
2022-11-29T16:57:29.450Z,80.93
2022-11-29T16:59:57.185Z,77.70
2022-11-29T17:02:24.663Z,76.38
2022-11-29T17:04:52.188Z,75.65
2022-11-29T17:07:32.306Z,75.55
2022-11-29T17:10:00.194Z,73.07
2022-11-29T17:12:27.612Z,73.32
2022-11-29T17:14:55.042Z,70.03
2022-11-29T17:17:22.510Z,69.30
2022-11-29T17:19:49.990Z,64.85
2022-11-29T17:22:17.482Z,71.60
2022-11-29T17:24:48.238Z,70.57
2022-11-29T17:27:16.230Z,68.65
2022-11-29T17:29:43.599Z,64.97
2022-11-29T17:32:11.211Z,68.90
2022-11-29T17:34:38.825Z,66.40
2022-11-29T17:37:06.286Z,67.70
2022-11-29T17:39:33.851Z,72.28
2022-11-29T17:42:01.282Z,66.68
2022-11-29T17:44:28.808Z,68.45
2022-11-29T17:46:56.255Z,67.75
2022-11-29T17:49:23.769Z,68.13
2022-11-29T17:51:52.970Z,61.95
2022-11-29T17:54:22.308Z,70.50
2022-11-29T17:56:50.765Z,75.32
2022-11-29T17:59:18.306Z,73.70
2022-11-29T18:01:48.847Z,74.25
2022-11-29T18:04:16.680Z,76.93
2022-11-29T18:06:49.811Z,76.00
2022-11-29T18:11:49.413Z,73.65
2022-11-29T18:14:20.643Z,74.85
2022-11-29T18:16:51.791Z,93.20
2022-11-29T18:19:21.777Z,79.63
2022-11-29T18:21:49.776Z,79.97
2022-11-29T18:24:18.092Z,76.20
2022-11-29T18:26:45.700Z,74.35
2022-11-29T18:29:13.479Z,78.20
2022-11-29T18:31:43.559Z,85.18
2022-11-29T18:34:13.207Z,82.55
2022-11-29T18:36:43.590Z,80.53
2022-11-29T18:39:16.341Z,85.05
2022-11-29T18:41:46.702Z,81.88
2022-11-29T18:44:15.748Z,80.70
2022-11-29T18:46:44.750Z,78.85
2022-11-29T18:49:15.561Z,78.40
2022-11-29T18:51:45.051Z,87.50
2022-11-29T18:54:14.660Z,78.50
2022-11-29T18:56:43.488Z,86.47
2022-11-29T18:59:19.319Z,81.70
2022-11-29T19:01:48.539Z,85.07
2022-11-29T19:04:19.133Z,89.68
2022-11-29T19:06:47.222Z,85.43
2022-11-29T19:09:21.485Z,83.43
2022-11-29T19:11:49.927Z,89.13
2022-11-29T19:14:18.491Z,85.85
2022-11-29T19:16:48.610Z,86.97
2022-11-29T19:19:18.655Z,78.63
2022-11-29T19:21:46.694Z,85.53
2022-11-29T19:24:15.847Z,79.80
2022-11-29T19:26:45.102Z,84.20
2022-11-29T19:29:13.952Z,81.95
2022-11-29T19:31:42.640Z,79.40
2022-11-29T19:34:10.710Z,83.95
2022-11-29T19:36:44.227Z,80.72
2022-11-29T19:39:14.592Z,80.13
2022-11-29T19:41:44.560Z,87.68
2022-11-29T19:44:12.470Z,86.47
2022-11-29T19:46:42.668Z,82.97
2022-11-29T19:49:10.507Z,88.25
2022-11-29T19:51:38.483Z,80.90
2022-11-29T19:54:07.839Z,77.53
2022-11-29T19:56:35.710Z,83.28
2022-11-29T19:59:03.179Z,84.15
2022-11-29T20:01:39.768Z,82.07
2022-11-29T20:04:09.760Z,78.68
2022-11-29T20:06:37.940Z,85.35
2022-11-29T20:09:06.521Z,77.88
2022-11-29T20:11:34.336Z,85.57
2022-11-29T20:14:03.690Z,82.05
2022-11-29T20:16:32.100Z,83.00
2022-11-29T20:18:59.600Z,81.20
2022-11-29T20:21:30.676Z,89.05
2022-11-29T20:24:01.357Z,81.32
2022-11-29T20:26:33.277Z,83.68
2022-11-29T20:29:02.293Z,79.38
2022-11-29T20:31:30.343Z,76.97
2022-11-29T20:33:58.162Z,79.80
2022-11-29T20:37:06.854Z,86.93
2022-11-29T20:39:40.348Z,78.45
2022-11-29T20:42:29.625Z,83.47
2022-11-29T20:45:02.810Z,85.32
2022-11-29T20:47:45.085Z,81.85
2022-11-29T20:50:24.338Z,84.05
2022-11-29T20:53:25.199Z,80.18
2022-11-29T20:55:52.698Z,78.13
2022-11-29T20:58:20.199Z,87.50
2022-11-29T21:00:47.736Z,86.13
2022-11-29T21:03:19.280Z,80.50
2022-11-29T21:05:47.602Z,80.03
2022-11-29T21:08:16.539Z,77.68
2022-11-29T21:10:44.279Z,76.43
2022-11-29T21:13:13.159Z,82.65
2022-11-29T21:15:41.042Z,82.38
2022-11-29T21:18:20.458Z,73.78
2022-11-29T21:21:02.017Z,80.38
2022-11-29T21:23:38.400Z,79.60
2022-11-29T21:26:16.633Z,80.10
2022-11-29T21:28:57.748Z,76.95
2022-11-29T21:31:25.653Z,76.43
2022-11-29T21:33:54.155Z,78.00
2022-11-29T21:36:21.749Z,82.07
2022-11-29T21:38:54.019Z,75.47
2022-11-29T21:41:22.904Z,80.45
2022-11-29T21:44:06.179Z,83.00
2022-11-29T21:46:35.661Z,83.18
2022-11-29T21:49:04.085Z,83.80
2022-11-29T21:51:31.718Z,84.45
2022-11-29T21:53:59.190Z,79.80
2022-11-29T21:56:26.777Z,84.82
2022-11-29T21:58:54.203Z,92.22
2022-11-29T22:01:21.809Z,85.35
2022-11-29T22:03:53.858Z,83.38
2022-11-29T22:06:24.430Z,79.20
2022-11-29T22:08:52.128Z,86.20
2022-11-29T22:11:31.096Z,89.20
2022-11-29T22:14:19.008Z,82.47
2022-11-29T22:16:58.665Z,85.90
2022-11-29T22:19:34.457Z,79.25
2022-11-29T22:22:07.028Z,82.20
2022-11-29T22:24:36.270Z,83.75
2022-11-29T22:27:04.229Z,85.03
2022-11-29T22:29:31.742Z,88.60
2022-11-29T22:31:59.678Z,90.28
2022-11-29T22:34:28.213Z,85.15
2022-11-29T22:36:56.479Z,82.65
2022-11-29T22:39:24.276Z,72.05
2022-11-29T22:41:54.544Z,74.13
2022-11-29T22:44:25.908Z,73.22
2022-11-29T22:46:53.587Z,69.43
2022-11-29T22:49:21.301Z,75.47
2022-11-29T22:51:48.999Z,73.53
2022-11-29T22:54:17.472Z,72.78
2022-11-29T22:56:45.917Z,78.93
2022-11-29T22:59:13.893Z,76.53
2022-11-29T23:01:42.345Z,74.97
2022-11-29T23:04:12.264Z,75.78
2022-11-29T23:06:45.590Z,76.75
2022-11-29T23:09:18.997Z,77.65
2022-11-29T23:11:51.138Z,72.70
2022-11-29T23:14:19.240Z,71.65
2022-11-29T23:16:46.869Z,72.82
2022-11-29T23:19:16.785Z,75.78
2022-11-29T23:21:45.935Z,72.75
2022-11-29T23:24:14.605Z,76.53
2022-11-29T23:26:46.024Z,73.45
2022-11-29T23:29:16.618Z,73.00
2022-11-29T23:31:44.692Z,75.63
2022-11-29T23:34:12.795Z,71.00
2022-11-29T23:36:40.329Z,70.43
2022-11-29T23:39:08.129Z,73.93
2022-11-29T23:41:36.872Z,69.40
2022-11-29T23:44:05.869Z,69.45
2022-11-29T23:46:35.156Z,70.72
2022-11-29T23:49:02.919Z,69.05
2022-11-29T23:51:30.527Z,67.65
2022-11-29T23:53:57.997Z,68.00
2022-11-29T23:56:25.726Z,68.55
2022-11-29T23:58:53.128Z,64.60
